createdAt,value
2018-09-04T00:00:29.521Z,60.8
2018-09-04T00:01:20.161Z,60.8
2018-09-04T00:02:09.638Z,60.8
2018-09-04T00:02:59.773Z,60.8
2018-09-04T00:03:49.868Z,60.8
2018-09-04T00:04:40.665Z,60.8
2018-09-04T00:05:30.506Z,60.8
2018-09-04T00:06:20.587Z,60.8
2018-09-04T00:07:10.346Z,60.8
2018-09-04T00:08:00.393Z,60.7
2018-09-04T00:08:50.975Z,60.7
2018-09-04T00:09:40.570Z,60.7
2018-09-04T00:10:30.948Z,60.7
2018-09-04T00:11:20.658Z,60.7
2018-09-04T00:12:11.013Z,60.7
2018-09-04T00:31:42.188Z,60.6
2018-09-04T00:32:32.633Z,60.5
2018-09-04T00:33:22.331Z,60.5
2018-09-04T00:34:12.741Z,60.5
2018-09-04T00:35:02.776Z,60.5
2018-09-04T00:35:52.799Z,60.5
2018-09-04T00:36:42.633Z,60.5
2018-09-04T00:37:32.088Z,60.5
2018-09-04T00:38:22.986Z,60.5
2018-09-04T00:39:13.346Z,60.5
2018-09-04T00:40:02.848Z,60.5
2018-09-04T00:40:53.188Z,60.4
2018-09-04T00:41:43.787Z,60.4
2018-09-04T00:42:33.361Z,60.4
2018-09-04T00:43:23.640Z,60.4
2018-09-04T00:44:12.536Z,60.4
2018-09-04T00:45:03.528Z,60.4
2018-09-04T00:45:53.563Z,60.4
2018-09-04T00:46:43.722Z,60.4
2018-09-04T00:47:33.710Z,60.4
2018-09-04T00:48:23.461Z,60.4
2018-09-04T00:49:13.282Z,60.4
2018-09-04T00:50:03.352Z,60.4
2018-09-04T00:50:53.370Z,60.4
2018-09-04T00:51:43.977Z,60.4
2018-09-04T00:52:33.312Z,60.4
2018-09-04T00:53:23.593Z,60.4
2018-09-04T00:54:13.922Z,60.4
2018-09-04T00:55:04.090Z,60.4
2018-09-04T00:55:53.851Z,60.4
2018-09-04T00:56:43.694Z,60.3
2018-09-04T00:57:34.447Z,60.3
2018-09-04T00:58:24.577Z,60.3
2018-09-04T00:59:14.053Z,60.3
2018-09-04T01:00:04.792Z,60.3
2018-09-04T01:00:54.731Z,60.3
2018-09-04T01:01:44.810Z,60.3
2018-09-04T01:02:34.579Z,60.3
2018-09-04T01:03:24.930Z,60.3
2018-09-04T01:04:14.404Z,60.3
2018-09-04T01:05:05.339Z,60.3
2018-09-04T01:05:54.829Z,60.3
2018-09-04T01:06:45.185Z,60.3
2018-09-04T01:07:35.927Z,60.3
2018-09-04T01:08:24.746Z,60.3
2018-09-04T01:09:14.850Z,60.3
2018-09-04T01:10:05.700Z,60.3
2018-09-04T01:10:55.211Z,60.3
2018-09-04T01:11:45.604Z,60.3
2018-09-04T01:12:35.313Z,60.2
2018-09-04T01:13:25.443Z,60.3
2018-09-04T01:14:16.071Z,60.2
2018-09-04T01:15:05.841Z,60.2
2018-09-04T01:15:55.028Z,60.2
2018-09-04T01:16:45.661Z,60.2
2018-09-04T01:17:36.334Z,60.2
2018-09-04T01:18:26.361Z,60.2
2018-09-04T01:19:16.145Z,60.1
2018-09-04T01:20:06.545Z,60.2
2018-09-04T01:20:55.975Z,60.2
2018-09-04T01:21:46.638Z,60.1
2018-09-04T01:22:36.983Z,60.1
2018-09-04T01:23:26.209Z,60.1
2018-09-04T01:24:16.548Z,60.1
2018-09-04T01:25:06.863Z,60.1
2018-09-04T01:25:56.078Z,60.1
2018-09-04T01:26:46.143Z,60.1
2018-09-04T01:27:36.771Z,60.1
2018-09-04T01:28:26.906Z,60.1
2018-09-04T01:29:17.223Z,60.1
2018-09-04T01:30:07.555Z,60.1
2018-09-04T01:30:56.777Z,60.1
2018-09-04T01:31:46.858Z,60.1
2018-09-04T01:32:37.268Z,60.1
2018-09-04T01:33:27.559Z,60.1
2018-09-04T01:34:17.315Z,60.1
2018-09-04T01:35:07.369Z,60.1
2018-09-04T01:35:57.440Z,60.1
2018-09-04T01:36:46.942Z,60.1
2018-09-04T01:37:37.580Z,60
2018-09-04T01:38:27.337Z,60
2018-09-04T01:39:17.923Z,60
2018-09-04T01:40:08.090Z,60
2018-09-04T01:40:57.277Z,60
2018-09-04T01:41:47.613Z,60
2018-09-04T01:42:38.032Z,60
2018-09-04T01:43:27.431Z,60
2018-09-04T01:44:17.856Z,60
2018-09-04T01:45:07.869Z,60
2018-09-04T01:45:58.209Z,59.9
2018-09-04T01:46:48.546Z,59.9
2018-09-04T01:47:38.053Z,59.9
2018-09-04T01:48:28.679Z,59.9
2018-09-04T01:49:18.157Z,59.9
2018-09-04T01:50:08.554Z,59.9
2018-09-04T01:50:58.851Z,59.9
2018-09-04T01:51:48.665Z,59.9
2018-09-04T01:52:39.016Z,59.9
2018-09-04T01:53:29.069Z,59.9
2018-09-04T01:54:19.100Z,59.9
2018-09-04T01:55:08.645Z,59.9
2018-09-04T01:55:58.684Z,59.9
2018-09-04T01:56:49.069Z,59.9
2018-09-04T01:57:38.254Z,59.9
2018-09-04T01:58:29.748Z,59.9
2018-09-04T01:59:18.948Z,59.9
2018-09-04T02:00:08.176Z,59.9
2018-09-04T02:00:59.343Z,59.9
2018-09-04T02:01:48.853Z,59.9
2018-09-04T02:02:39.506Z,59.9
2018-09-04T02:03:29.343Z,59.8
2018-09-04T02:04:19.039Z,59.8
2018-09-04T02:05:09.991Z,59.8
2018-09-04T02:06:00.053Z,59.8
2018-09-04T02:06:49.833Z,59.8
2018-09-04T02:07:39.891Z,59.8
2018-09-04T02:08:29.334Z,59.8
2018-09-04T02:09:19.998Z,59.8
2018-09-04T02:10:10.101Z,59.8
2018-09-04T02:11:00.445Z,59.8
2018-09-04T02:11:50.472Z,59.8
2018-09-04T02:12:39.975Z,59.8
2018-09-04T02:13:30.586Z,59.8
2018-09-04T02:14:20.465Z,59.8
2018-09-04T02:15:10.152Z,59.8
2018-09-04T02:16:00.555Z,59.8
2018-09-04T02:16:51.152Z,59.8
2018-09-04T02:17:40.658Z,59.8
2018-09-04T02:18:30.137Z,59.7
2018-09-04T02:19:20.795Z,59.7
2018-09-04T02:20:10.834Z,59.7
2018-09-04T02:21:00.683Z,59.7
2018-09-04T02:21:50.399Z,59.7
2018-09-04T02:22:40.480Z,59.7
2018-09-04T02:23:30.812Z,59.7
2018-09-04T02:24:20.599Z,59.7
2018-09-04T02:25:11.282Z,59.7
2018-09-04T02:26:01.339Z,59.7
2018-09-04T02:26:51.076Z,59.7
2018-09-04T02:27:41.450Z,59.6
2018-09-04T02:28:31.499Z,59.6
2018-09-04T02:29:21.829Z,59.6
2018-09-04T02:30:11.368Z,59.6
2018-09-04T02:31:01.119Z,59.6
2018-09-04T02:31:51.485Z,59.6
2018-09-04T02:32:41.279Z,59.6
2018-09-04T02:33:31.917Z,59.6
2018-09-04T02:34:21.894Z,59.6
2018-09-04T02:35:12.067Z,59.6
2018-09-04T02:36:01.838Z,59.6
2018-09-04T02:36:52.219Z,59.6
2018-09-04T02:37:41.381Z,59.6
2018-09-04T02:38:32.291Z,59.6
2018-09-04T02:39:22.317Z,59.6
2018-09-04T02:40:12.129Z,59.6
2018-09-04T02:41:02.485Z,59.6
2018-09-04T02:41:52.553Z,59.6
2018-09-04T02:42:42.309Z,59.6
2018-09-04T02:43:32.671Z,59.5
2018-09-04T02:44:22.986Z,59.6
2018-09-04T02:45:12.796Z,59.5
2018-09-04T02:46:02.565Z,59.5
2018-09-04T02:46:53.208Z,59.5
2018-09-04T02:47:42.699Z,59.5
2018-09-04T02:48:33.357Z,59.5
2018-09-04T02:49:23.113Z,59.5
2018-09-04T02:50:13.090Z,59.5
2018-09-04T02:51:03.216Z,59.5
2018-09-04T02:51:53.283Z,59.5
2018-09-04T02:52:43.928Z,59.4
2018-09-04T02:53:32.863Z,59.4
2018-09-04T02:54:22.985Z,59.4
2018-09-04T02:55:13.770Z,59.4
2018-09-04T02:56:03.611Z,59.4
2018-09-04T02:56:53.685Z,59.4
2018-09-04T02:57:43.472Z,59.4
2018-09-04T02:58:33.228Z,59.4
2018-09-04T02:59:23.895Z,59.4
2018-09-04T03:00:14.417Z,59.4
2018-09-04T03:01:04.316Z,59.4
2018-09-04T03:01:53.817Z,59.4
2018-09-04T03:02:43.862Z,59.4
2018-09-04T03:03:34.222Z,59.4
2018-09-04T03:04:24.560Z,59.4
2018-09-04T03:05:14.823Z,59.4
2018-09-04T03:06:04.117Z,59.4
2018-09-04T03:06:54.457Z,59.4
2018-09-04T03:07:44.524Z,59.4
2018-09-04T03:08:34.302Z,59.3
2018-09-04T03:09:24.069Z,59.3
2018-09-04T03:10:14.395Z,59.3
2018-09-04T03:11:05.049Z,59.3
2018-09-04T03:11:55.183Z,59.3
2018-09-04T03:12:44.639Z,59.3
2018-09-04T03:13:36.560Z,59.3
2018-09-04T03:14:25.066Z,59.3
2018-09-04T03:15:14.841Z,59.3
2018-09-04T03:16:04.599Z,59.3
2018-09-04T03:16:54.671Z,59.3
2018-09-04T03:17:45.308Z,59.3
2018-09-04T03:18:35.355Z,59.3
2018-09-04T03:19:25.144Z,59.3
2018-09-04T03:20:15.749Z,59.3
2018-09-04T03:21:05.258Z,59.3
2018-09-04T03:21:55.144Z,59.3
2018-09-04T03:22:45.706Z,59.3
2018-09-04T03:23:35.465Z,59.3
2018-09-04T03:24:26.145Z,59.3
2018-09-04T03:25:16.521Z,59.3
2018-09-04T03:26:05.716Z,59.3
2018-09-04T03:26:56.001Z,59.2
2018-09-04T03:27:45.819Z,59.2
2018-09-04T03:28:35.848Z,59.2
2018-09-04T03:29:25.945Z,59.2
2018-09-04T03:30:16.584Z,59.2
2018-09-04T03:31:06.978Z,59.2
2018-09-04T03:31:56.150Z,59.2
2018-09-04T03:32:45.899Z,59.2
2018-09-04T03:33:35.951Z,59.2
2018-09-04T03:34:27.150Z,59.2
2018-09-04T03:35:16.897Z,59.1
2018-09-04T03:36:06.614Z,59.1
2018-09-04T03:36:56.757Z,59.1
2018-09-04T03:37:46.544Z,59.1
2018-09-04T03:38:37.160Z,59.1
2018-09-04T03:39:26.712Z,59.1
2018-09-04T03:40:17.027Z,59.1
2018-09-04T03:41:07.036Z,59.1
2018-09-04T03:41:56.982Z,59.1
2018-09-04T03:42:47.270Z,59.1
2018-09-04T03:43:37.292Z,59.1
2018-09-04T03:44:27.108Z,59.1
2018-09-04T03:45:17.459Z,59.1
2018-09-04T03:46:06.987Z,59.1
2018-09-04T03:46:57.796Z,59.1
2018-09-04T03:47:47.330Z,59.1
2018-09-04T03:48:37.981Z,59.1
2018-09-04T03:49:27.680Z,59.1
2018-09-04T03:50:17.501Z,59.1
2018-09-04T03:51:07.036Z,59.1
2018-09-04T03:51:57.934Z,59
2018-09-04T03:52:48.280Z,59
2018-09-04T03:53:37.767Z,59
2018-09-04T03:54:28.139Z,59
2018-09-04T03:55:17.903Z,59
2018-09-04T03:56:08.829Z,59
2018-09-04T03:56:58.574Z,59
2018-09-04T03:57:48.406Z,59
2018-09-04T03:58:38.478Z,59
2018-09-04T03:59:28.835Z,58.9
2018-09-04T04:00:17.681Z,58.9
2018-09-04T04:01:08.459Z,58.9
2018-09-04T04:01:58.454Z,58.9
2018-09-04T04:02:48.186Z,58.9
2018-09-04T04:03:38.283Z,58.9
2018-09-04T04:04:29.224Z,58.9
2018-09-04T04:05:18.958Z,58.9
2018-09-04T04:06:08.932Z,58.9
2018-09-04T04:06:59.073Z,58.9
2018-09-04T04:07:48.891Z,58.9
2018-09-04T04:08:38.923Z,58.9
2018-09-04T04:09:29.303Z,58.9
2018-09-04T04:10:18.800Z,58.9
2018-09-04T04:11:09.708Z,58.9
2018-09-04T04:12:00.273Z,58.9
2018-09-04T04:12:49.258Z,58.9
2018-09-04T04:13:39.318Z,58.9
2018-09-04T04:14:29.997Z,58.9
2018-09-04T04:15:19.438Z,58.9
2018-09-04T04:16:10.305Z,58.8
2018-09-04T04:16:59.518Z,58.9
2018-09-04T04:17:49.332Z,58.9
2018-09-04T04:18:40.252Z,58.8
2018-09-04T04:19:30.333Z,58.8
2018-09-04T04:20:20.675Z,58.8
2018-09-04T04:21:10.171Z,58.8
2018-09-04T04:22:00.239Z,58.8
2018-09-04T04:22:50.602Z,58.8
2018-09-04T04:23:40.097Z,58.8
2018-09-04T04:24:30.437Z,58.8
2018-09-04T04:25:19.934Z,58.8
2018-09-04T04:26:10.604Z,58.8
2018-09-04T04:27:00.867Z,58.8
2018-09-04T04:27:50.707Z,58.8
2018-09-04T04:28:40.767Z,58.8
2018-09-04T04:29:30.218Z,58.8
2018-09-04T04:30:21.159Z,58.8
2018-09-04T04:31:11.177Z,58.8
2018-09-04T04:32:01.072Z,58.8
2018-09-04T04:32:50.426Z,58.8
2018-09-04T04:33:41.447Z,58.7
2018-09-04T04:34:30.929Z,58.7
2018-09-04T04:35:21.531Z,58.7
2018-09-04T04:36:11.616Z,58.7
2018-09-04T04:37:00.829Z,58.7
2018-09-04T04:37:51.736Z,58.7
2018-09-04T04:38:41.556Z,58.7
2018-09-04T04:39:31.321Z,58.7
2018-09-04T04:40:21.088Z,58.7
2018-09-04T04:41:12.064Z,58.7
2018-09-04T04:42:01.538Z,58.7
2018-09-04T04:42:51.258Z,58.7
2018-09-04T05:00:31.542Z,58.5
2018-09-04T05:01:20.083Z,58.5
2018-09-04T05:02:10.740Z,58.5
2018-09-04T05:03:01.047Z,58.5
2018-09-04T05:03:50.600Z,58.5
2018-09-04T05:04:40.935Z,58.5
2018-09-04T05:05:31.349Z,58.5
2018-09-04T05:06:21.350Z,58.5
2018-09-04T05:07:10.837Z,58.4
2018-09-04T05:08:00.891Z,58.5
2018-09-04T05:08:50.929Z,58.4
2018-09-04T05:09:41.026Z,58.4
2018-09-04T05:10:30.787Z,58.4
2018-09-04T05:11:22.597Z,58.4
2018-09-04T05:12:11.498Z,58.4
2018-09-04T05:13:01.294Z,58.4
2018-09-04T05:13:51.091Z,58.4
2018-09-04T05:14:41.416Z,58.4
2018-09-04T05:15:31.483Z,58.4
2018-09-04T05:16:21.576Z,58.4
2018-09-04T05:17:11.027Z,58.4
2018-09-04T05:18:01.693Z,58.4
2018-09-04T05:18:51.513Z,58.4
2018-09-04T05:19:41.608Z,58.4
2018-09-04T05:20:31.574Z,58.4
2018-09-04T05:21:21.916Z,58.4
2018-09-04T05:22:11.788Z,58.4
2018-09-04T05:23:02.348Z,58.4
2018-09-04T05:23:51.889Z,58.4
2018-09-04T05:24:41.893Z,58.4
2018-09-04T05:25:32.518Z,58.4
2018-09-04T05:26:22.585Z,58.3
2018-09-04T05:27:11.853Z,58.3
2018-09-04T05:28:01.339Z,58.3
2018-09-04T05:28:53.311Z,58.3
2018-09-04T05:29:42.867Z,58.3
2018-09-04T05:30:32.640Z,58.3
2018-09-04T05:31:22.473Z,58.3
2018-09-04T05:32:12.266Z,58.3
2018-09-04T05:33:02.035Z,58.3
2018-09-04T05:33:52.945Z,58.3
2018-09-04T05:34:42.659Z,58.3
2018-09-04T05:35:33.010Z,58.3
2018-09-04T05:36:23.324Z,58.3
2018-09-04T05:37:12.605Z,58.3
2018-09-04T05:38:03.207Z,58.3
2018-09-04T05:38:53.807Z,58.3
2018-09-04T05:39:43.031Z,58.3
2018-09-04T05:40:33.147Z,58.3
2018-09-04T05:41:22.612Z,58.3
2018-09-04T05:42:13.509Z,58.2
2018-09-04T05:43:03.912Z,58.2
2018-09-04T05:43:54.215Z,58.2
2018-09-04T05:44:43.520Z,58.2
2018-09-04T05:45:34.138Z,58.2
2018-09-04T05:46:23.856Z,58.2
2018-09-04T05:47:13.333Z,58.2
2018-09-04T05:48:03.692Z,58.2
2018-09-04T05:48:53.761Z,58.2
2018-09-04T05:49:44.062Z,58.2
2018-09-04T05:50:34.148Z,58.2
2018-09-04T05:51:23.390Z,58.2
2018-09-04T05:52:13.593Z,58.1
2018-09-04T05:53:04.646Z,58.1
2018-09-04T05:53:54.417Z,58.1
2018-09-04T05:54:44.470Z,58.1
2018-09-04T05:55:34.530Z,58.1
2018-09-04T05:56:24.606Z,58.1
2018-09-04T05:57:14.386Z,58.1
2018-09-04T05:58:04.279Z,58.1
2018-09-04T05:58:54.541Z,58.1
2018-09-04T05:59:44.878Z,58.1
2018-09-04T06:00:34.953Z,58.1
2018-09-04T06:01:25.293Z,58.1
2018-09-04T06:02:15.368Z,58.1
2018-09-04T06:03:05.117Z,58.1
2018-09-04T06:03:55.498Z,58.1
2018-09-04T06:04:45.258Z,58.1
2018-09-04T06:05:35.611Z,58.1
2018-09-04T06:06:25.086Z,58.1
2018-09-04T06:07:15.179Z,58.1
2018-09-04T06:08:05.821Z,58.1
2018-09-04T06:08:55.304Z,58
2018-09-04T06:09:45.379Z,58
2018-09-04T06:10:35.685Z,58
2018-09-04T06:11:26.044Z,58
2018-09-04T06:12:15.781Z,58
2018-09-04T06:13:06.201Z,58
2018-09-04T06:13:56.085Z,58
2018-09-04T06:14:46.542Z,58
2018-09-04T06:15:35.822Z,58
2018-09-04T06:16:25.093Z,58
2018-09-04T06:17:16.220Z,58
2018-09-04T06:18:05.983Z,57.9
2018-09-04T06:18:56.106Z,57.9
2018-09-04T06:19:46.400Z,57.9
2018-09-04T06:20:36.516Z,57.9
2018-09-04T06:21:26.533Z,57.9
2018-09-04T06:22:16.309Z,57.9
2018-09-04T06:23:06.963Z,57.9
2018-09-04T06:23:56.453Z,57.9
2018-09-04T06:24:47.078Z,57.9
2018-09-04T06:25:37.196Z,57.9
2018-09-04T06:26:27.221Z,57.9
2018-09-04T06:27:16.729Z,57.9
2018-09-04T06:28:07.321Z,57.9
2018-09-04T06:28:56.880Z,57.9
2018-09-04T06:29:47.011Z,57.9
2018-09-04T06:30:37.053Z,57.9
2018-09-04T06:31:27.868Z,57.9
2018-09-04T06:33:08.112Z,57.9
2018-09-04T06:33:57.393Z,57.9
2018-09-04T06:34:46.715Z,57.8
2018-09-04T06:35:38.285Z,57.8
2018-09-04T06:36:28.441Z,57.8
2018-09-04T06:37:18.030Z,57.8
2018-09-04T06:38:08.132Z,57.8
2018-09-04T06:38:57.943Z,57.8
2018-09-04T06:39:47.687Z,57.8
2018-09-04T06:40:37.381Z,57.8
2018-09-04T06:41:27.874Z,57.8
2018-09-04T06:42:18.422Z,57.8
2018-09-04T06:43:07.916Z,57.8
2018-09-04T06:51:29.129Z,57.7
2018-09-04T06:53:58.748Z,57.7
2018-09-04T06:54:49.299Z,57.7
2018-09-04T06:55:39.173Z,57.7
2018-09-04T06:56:28.995Z,57.7
2018-09-04T06:57:19.602Z,57.7
2018-09-04T06:58:08.792Z,57.7
2018-09-04T06:58:59.437Z,57.7
2018-09-04T06:59:49.755Z,57.7
2018-09-04T07:00:39.547Z,57.6
2018-09-04T07:01:29.068Z,57.7
2018-09-04T07:02:18.615Z,57.6
2018-09-04T07:03:09.743Z,57.6
2018-09-04T07:04:00.142Z,57.6
2018-09-04T07:04:49.927Z,57.6
2018-09-04T07:05:39.440Z,57.6
2018-09-04T07:06:29.541Z,57.6
2018-09-04T07:07:19.551Z,57.6
2018-09-04T07:08:09.644Z,57.6
2018-09-04T07:09:00.005Z,57.6
2018-09-04T07:09:50.127Z,57.6
2018-09-04T07:10:39.849Z,57.6
2018-09-04T07:11:30.157Z,57.6
2018-09-04T07:12:19.974Z,57.6
2018-09-04T07:13:10.358Z,57.6
2018-09-04T07:14:00.867Z,57.6
2018-09-04T07:14:50.937Z,57.6
2018-09-04T07:15:40.782Z,57.6
2018-09-04T07:16:31.038Z,57.6
2018-09-04T07:17:21.153Z,57.6
2018-09-04T07:18:11.211Z,57.6
2018-09-04T07:19:01.319Z,57.6
2018-09-04T07:19:51.099Z,57.5
2018-09-04T07:20:41.097Z,57.5
2018-09-04T07:21:31.466Z,57.5
2018-09-04T07:22:21.523Z,57.5
2018-09-04T07:23:11.306Z,57.5
2018-09-04T07:24:02.173Z,57.5
2018-09-04T07:24:51.773Z,57.5
2018-09-04T07:25:41.500Z,57.5
2018-09-04T07:26:32.088Z,57.5
2018-09-04T07:27:21.130Z,57.5
2018-09-04T07:28:11.536Z,57.5
2018-09-04T07:29:00.919Z,57.4
2018-09-04T07:29:52.075Z,57.4
2018-09-04T07:30:41.298Z,57.4
2018-09-04T07:31:31.990Z,57.4
2018-09-04T07:32:22.005Z,57.4
2018-09-04T07:33:12.346Z,57.4
2018-09-04T07:34:02.145Z,57.4
2018-09-04T07:34:52.187Z,57.4
2018-09-04T07:35:42.260Z,57.4
2018-09-04T07:36:32.872Z,57.4
2018-09-04T07:37:22.092Z,57.4
2018-09-04T07:38:12.740Z,57.4
2018-09-04T07:39:02.798Z,57.4
2018-09-04T07:39:52.875Z,57.4
2018-09-04T07:40:42.978Z,57.4
2018-09-04T07:41:33.344Z,57.4
2018-09-04T07:42:22.500Z,57.4
2018-09-04T07:43:12.859Z,57.4
2018-09-04T07:44:02.102Z,57.3
2018-09-04T07:44:52.644Z,57.4
2018-09-04T07:45:43.025Z,57.4
2018-09-04T07:46:33.122Z,57.3
2018-09-04T07:47:22.881Z,57.3
2018-09-04T07:48:13.561Z,57.3
2018-09-04T07:49:03.049Z,57.3
2018-09-04T07:49:53.694Z,57.3
2018-09-04T07:50:43.398Z,57.3
2018-09-04T07:51:33.456Z,57.3
2018-09-04T07:52:23.851Z,57.3
2018-09-04T07:53:13.609Z,57.3
2018-09-04T07:54:03.624Z,57.3
2018-09-04T07:54:53.710Z,57.3
2018-09-04T07:55:44.076Z,57.3
2018-09-04T07:56:34.154Z,57.3
2018-09-04T07:57:23.662Z,57.3
2018-09-04T07:58:14.288Z,57.3
2018-09-04T07:59:04.358Z,57.3
2018-09-04T07:59:53.820Z,57.3
2018-09-04T08:00:43.599Z,57.3
2018-09-04T08:01:34.523Z,57.2
2018-09-04T08:02:24.031Z,57.3
2018-09-04T08:03:13.586Z,57.3
2018-09-04T08:04:03.947Z,57.3
2018-09-04T08:04:53.718Z,57.2
2018-09-04T08:05:43.193Z,57.2
2018-09-04T08:06:34.434Z,57.2
2018-09-04T08:07:24.753Z,57.2
2018-09-04T08:08:13.975Z,57.2
2018-09-04T08:09:03.483Z,57.2
2018-09-04T08:09:53.818Z,57.2
2018-09-04T08:10:44.473Z,57.2
2018-09-04T08:11:35.023Z,57.2
2018-09-04T08:12:25.623Z,57.1
2018-09-04T08:13:15.450Z,57.1
2018-09-04T08:14:05.503Z,57.1
2018-09-04T08:14:54.743Z,57.1
2018-09-04T08:15:45.641Z,57.1
2018-09-04T08:16:35.731Z,57.1
2018-09-04T08:17:25.415Z,57.1
2018-09-04T08:18:15.222Z,57.1
2018-09-04T08:19:05.913Z,57.1
2018-09-04T08:19:55.627Z,57.1
2018-09-04T08:20:46.665Z,57.1
2018-09-04T08:21:36.104Z,57.1
2018-09-04T08:22:25.585Z,57.1
2018-09-04T08:23:15.722Z,57.1
2018-09-04T09:15:00.797Z,58.3
2018-09-04T09:15:50.946Z,58.4
2018-09-04T09:16:41.051Z,58.5
2018-09-04T09:18:21.611Z,58.6
2018-09-04T09:19:11.191Z,58.8
2018-09-04T09:20:00.694Z,58.8
2018-09-04T09:20:50.970Z,58.9
2018-09-04T09:21:41.072Z,59
2018-09-04T09:22:31.087Z,59.1
2018-09-04T09:23:21.746Z,59.2
2018-09-04T09:24:11.236Z,59.3
2018-09-04T09:25:01.831Z,59.3
2018-09-04T09:25:52.134Z,59.4
2018-09-04T09:26:41.944Z,59.6
2018-09-04T09:27:31.234Z,59.6
2018-09-04T09:28:21.550Z,59.7
2018-09-04T09:29:11.285Z,59.8
2018-09-04T09:30:01.988Z,59.8
2018-09-04T09:30:52.035Z,59.9
2018-09-04T09:31:42.118Z,59.9
2018-09-04T09:32:31.644Z,60.1
2018-09-04T09:33:21.943Z,60.2
2018-09-04T09:34:12.533Z,60.3
2018-09-04T09:35:02.392Z,60.3
2018-09-04T09:35:51.889Z,60.4
2018-09-04T09:36:43.339Z,60.4
2018-09-04T09:37:32.578Z,60.6
2018-09-04T09:38:22.325Z,60.6
2018-09-04T09:39:12.367Z,60.7
2018-09-04T09:40:02.510Z,60.8
2018-09-04T09:40:51.674Z,60.9
2018-09-04T09:41:42.287Z,60.9
2018-09-04T09:42:32.662Z,61
2018-09-04T09:43:22.990Z,61.1
2018-09-04T09:44:12.611Z,61.2
2018-09-04T09:45:03.410Z,61.2
2018-09-04T09:45:52.965Z,61.3
2018-09-04T09:46:42.423Z,61.4
2018-09-04T09:47:33.597Z,61.4
2018-09-04T09:48:23.113Z,61.5
2018-09-04T09:49:13.505Z,61.6
2018-09-04T09:50:02.777Z,61.7
2018-09-04T09:50:54.322Z,61.8
2018-09-04T09:51:43.662Z,61.9
2018-09-04T09:52:34.212Z,61.9
2018-09-04T09:53:26.824Z,62.1
2018-09-04T09:54:13.865Z,62.1
2018-09-04T09:55:03.944Z,62.2
2018-09-04T09:55:54.099Z,62.3
2018-09-04T09:56:43.936Z,62.3
2018-09-04T09:57:33.615Z,62.4
2018-09-04T09:58:22.896Z,62.5
2018-09-04T09:59:14.244Z,62.5
2018-09-04T10:00:05.183Z,62.6
2018-09-04T10:00:54.873Z,62.7
2018-09-04T10:01:44.343Z,62.8
2018-09-04T10:02:34.654Z,62.9
2018-09-04T10:03:24.600Z,62.9
2018-09-04T10:04:15.405Z,63.1
2018-09-04T10:05:04.696Z,63.1
2018-09-04T10:05:54.424Z,63.2
2018-09-04T10:06:44.839Z,63.2
2018-09-04T10:07:35.814Z,63.3
2018-09-04T10:08:25.008Z,63.4
2018-09-04T10:09:14.526Z,63.5
2018-09-04T10:10:05.430Z,63.6
2018-09-04T10:10:54.577Z,63.7
2018-09-04T10:11:44.893Z,63.8
2018-09-04T10:12:34.936Z,63.9
2018-09-04T10:13:25.256Z,63.9
2018-09-04T10:14:15.336Z,63.9
2018-09-04T10:15:20.866Z,64
2018-09-04T10:15:55.201Z,64.1
2018-09-04T10:16:45.511Z,64.1
2018-09-04T10:17:35.629Z,64.3
2018-09-04T10:18:25.375Z,64.3
2018-09-04T10:19:15.478Z,64.4
2018-09-04T10:20:05.614Z,64.4
2018-09-04T10:20:56.123Z,64.6
2018-09-04T10:21:45.657Z,64.6
2018-09-04T10:22:35.718Z,64.7
2018-09-04T10:23:25.568Z,64.8
2018-09-04T10:24:15.638Z,64.9
2018-09-04T10:25:05.726Z,64.9
2018-09-04T10:25:56.580Z,65
2018-09-04T10:26:46.580Z,65.1
2018-09-04T10:27:36.640Z,65.2
2018-09-04T10:28:26.512Z,65.3
2018-09-04T10:29:30.884Z,65.3
2018-09-04T10:30:06.340Z,65.4
2018-09-04T10:30:56.071Z,65.4
2018-09-04T10:31:46.088Z,65.5
2018-09-04T10:32:36.744Z,65.6
2018-09-04T10:33:26.049Z,65.6
2018-09-04T10:34:16.624Z,65.8
2018-09-04T10:35:06.414Z,65.8
2018-09-04T10:35:56.689Z,65.9
2018-09-04T10:36:47.071Z,66
2018-09-04T10:37:38.501Z,66.1
2018-09-04T10:38:28.369Z,66.1
2018-09-04T16:15:52.554Z,71.4
2018-09-04T16:16:42.588Z,71.4
2018-09-04T16:17:32.945Z,71.4
2018-09-04T16:18:22.777Z,71.4
2018-09-04T16:19:13.165Z,71.4
2018-09-04T16:20:03.968Z,71.3
2018-09-04T16:20:55.043Z,71.3
2018-09-04T16:21:44.527Z,71.3
2018-09-04T16:22:33.768Z,71.3
2018-09-04T16:23:23.575Z,71.3
2018-09-04T16:24:13.829Z,71.3
2018-09-04T16:25:04.011Z,71.3
2018-09-04T16:25:53.513Z,71.3
2018-09-04T16:26:44.055Z,71.3
2018-09-04T16:27:35.672Z,71.3
2018-09-04T16:28:24.408Z,71.3
2018-09-04T16:29:15.546Z,71.3
2018-09-04T16:30:20.176Z,71.3
2018-09-04T16:30:54.960Z,71.3
2018-09-04T16:31:44.694Z,71.3
2018-09-04T16:32:35.288Z,71.3
2018-09-04T16:33:24.872Z,71.3
2018-09-04T16:34:16.117Z,71.3
2018-09-04T16:35:06.625Z,71.2
2018-09-04T16:35:55.241Z,71.2
2018-09-04T16:37:00.113Z,71.2
2018-09-04T16:37:36.808Z,71.2
2018-09-04T16:38:25.555Z,71.2
2018-09-04T16:39:14.916Z,71.2
2018-09-04T16:40:05.224Z,71.2
2018-09-04T16:40:56.314Z,71.2
2018-09-04T16:41:44.651Z,71.1
2018-09-04T16:42:36.490Z,71.1
2018-09-04T16:43:25.390Z,71.1
2018-09-04T16:44:30.333Z,71.1
2018-09-04T16:45:05.812Z,71.1
2018-09-04T16:45:55.393Z,71.1
2018-09-04T16:46:46.264Z,71.1
2018-09-04T16:47:35.776Z,71.1
2018-09-04T16:48:26.480Z,71.1
2018-09-04T16:49:30.422Z,71.1
2018-09-04T16:50:06.213Z,71.1
2018-09-04T16:50:56.450Z,71.1
2018-09-04T16:51:47.103Z,71.1
2018-09-04T16:52:36.908Z,71.1
2018-09-04T16:53:26.708Z,71.1
2018-09-04T16:54:17.048Z,71.1
2018-09-04T16:55:07.083Z,71.1
2018-09-04T16:55:55.854Z,71.1
2018-09-04T16:56:46.772Z,71
2018-09-04T16:57:37.366Z,71
2018-09-04T16:58:27.368Z,71
2018-09-04T16:59:16.088Z,71
2018-09-04T17:00:06.965Z,71
2018-09-04T17:00:56.534Z,71
2018-09-04T17:01:47.671Z,71
2018-09-04T17:02:37.163Z,70.9
2018-09-04T17:03:27.022Z,70.9
2018-09-04T17:04:32.528Z,70.9
2018-09-04T17:05:08.355Z,70.9
2018-09-04T17:05:57.939Z,70.9
2018-09-04T17:06:47.265Z,70.9
2018-09-04T17:07:38.060Z,70.9
2018-09-04T17:08:28.485Z,70.9
2018-09-04T17:09:17.631Z,70.9
2018-09-04T17:10:07.228Z,70.9
2018-09-04T17:10:57.900Z,70.9
2018-09-04T17:11:47.781Z,70.9
2018-09-04T17:12:38.238Z,70.9
2018-09-04T17:13:28.080Z,70.9
2018-09-04T17:14:18.517Z,70.8
2018-09-04T17:15:07.852Z,70.8
2018-09-04T17:16:12.555Z,70.8
2018-09-04T17:16:47.746Z,70.8
2018-09-04T17:17:53.512Z,70.8
2018-09-04T17:18:27.700Z,70.8
2018-09-04T17:19:18.923Z,70.8
2018-09-04T17:20:08.308Z,70.8
2018-09-04T17:20:58.425Z,70.8
2018-09-04T17:21:49.520Z,70.8
2018-09-04T17:22:38.485Z,70.8
2018-09-04T17:23:29.441Z,70.8
2018-09-04T17:24:18.887Z,70.8
2018-09-04T17:25:08.990Z,70.8
2018-09-04T17:25:59.156Z,70.8
2018-09-04T17:27:03.407Z,70.8
2018-09-04T17:27:38.874Z,70.8
2018-09-04T17:28:30.109Z,70.7
2018-09-04T17:29:19.789Z,70.8
2018-09-04T17:30:08.812Z,70.7
2018-09-04T17:31:00.493Z,70.7
2018-09-04T17:32:04.573Z,70.7
2018-09-04T17:32:40.283Z,70.7
2018-09-04T17:33:28.676Z,70.7
2018-09-04T17:34:18.380Z,70.7
2018-09-04T17:35:08.788Z,70.6
2018-09-04T17:35:58.839Z,70.6
2018-09-04T17:36:48.890Z,70.6
2018-09-04T17:37:38.906Z,70.6
2018-09-04T17:38:29.260Z,70.6
2018-09-04T17:39:19.083Z,70.6
2018-09-04T17:40:23.791Z,70.6
2018-09-04T17:40:59.226Z,70.6
2018-09-04T17:41:49.557Z,70.6
2018-09-04T17:42:39.569Z,70.6
2018-09-04T17:43:29.081Z,70.6
2018-09-04T17:44:18.881Z,70.6
2018-09-04T17:45:09.806Z,70.6
2018-09-04T17:45:58.733Z,70.5
2018-09-04T17:46:49.373Z,70.5
2018-09-04T17:47:40.310Z,70.5
2018-09-04T17:48:29.571Z,70.5
2018-09-04T17:49:20.898Z,70.5
2018-09-04T17:50:09.670Z,70.5
2018-09-04T17:51:00.266Z,70.5
2018-09-04T17:51:50.040Z,70.5
2018-09-04T17:52:40.398Z,70.5
2018-09-04T17:53:29.923Z,70.4
2018-09-04T17:54:20.798Z,70.4
2018-09-04T17:55:10.343Z,70.4
2018-09-04T17:56:00.385Z,70.4
2018-09-04T17:56:50.175Z,70.4
2018-09-04T17:57:40.236Z,70.4
2018-09-04T17:58:30.579Z,70.4
2018-09-04T17:59:20.945Z,70.4
2018-09-04T18:00:10.707Z,70.4
2018-09-04T18:01:01.858Z,70.4
2018-09-04T18:01:50.825Z,70.4
2018-09-04T18:02:41.147Z,70.4
2018-09-04T18:03:30.979Z,70.4
2018-09-04T18:04:20.753Z,70.4
2018-09-04T18:05:10.849Z,70.4
2018-09-04T18:06:01.459Z,70.4
2018-09-04T18:06:50.949Z,70.3
2018-09-04T18:07:41.326Z,70.4
2018-09-04T18:08:31.414Z,70.3
2018-09-04T18:09:21.239Z,70.3
2018-09-04T18:10:11.557Z,70.3
2018-09-04T18:11:01.062Z,70.3
2018-09-04T18:11:51.713Z,70.3
2018-09-04T18:12:42.033Z,70.3
2018-09-04T18:13:32.120Z,70.3
2018-09-04T18:14:21.897Z,70.3
2018-09-04T18:15:11.454Z,70.3
2018-09-04T18:16:01.178Z,70.3
2018-09-04T18:16:51.757Z,70.3
2018-09-04T18:17:42.092Z,70.3
2018-09-04T18:18:32.123Z,70.3
2018-09-04T18:19:22.243Z,70.3
2018-09-04T18:20:12.323Z,70.3
2018-09-04T18:21:02.644Z,70.3
2018-09-04T18:21:52.138Z,70.2
2018-09-04T18:22:42.198Z,70.2